Time;durP1;ratioP1;P1;durP2;ratioP2;P2;SDS_P1;SDS_P2;PMS_P1;PMS_P2;Temp;Humidity;BMP_temperature;BMP_pressure;BME280_temperature;BME280_humidity;BME280_pressure;Samples;Min_cycle;Max_cycle;Signal;HPM_P1;HPM_P2
2023/08/24 00:01:20;;;;;;;11.33;5.23;;;20.00;99.90;;;;;;5033347;28;20248;-57
2023/08/24 00:03:46;;;;;;;5.23;4.70;;;20.00;99.90;;;;;;5034620;28;20195;-57
2023/08/24 00:06:12;;;;;;;5.80;4.13;;;20.00;99.90;;;;;;5017676;28;20233;-58
2023/08/24 00:08:37;;;;;;;8.20;3.83;;;19.90;99.90;;;;;;5030412;28;20202;-57
2023/08/24 00:11:04;;;;;;;4.93;4.37;;;19.90;99.90;;;;;;5035682;28;20611;-57
2023/08/24 00:13:30;;;;;;;3.90;3.50;;;19.90;99.90;;;;;;5030016;28;20219;-57
2023/08/24 00:15:55;;;;;;;4.43;4.03;;;19.90;99.90;;;;;;5031637;28;20200;-57
2023/08/24 00:18:21;;;;;;;4.60;4.07;;;19.90;99.90;;;;;;5032739;28;20313;-57
2023/08/24 00:20:48;;;;;;;5.67;4.53;;;19.90;99.90;;;;;;5033907;28;20230;-56
2023/08/24 00:23:13;;;;;;;7.47;3.57;;;19.90;99.90;;;;;;5036582;28;20256;-56
2023/08/24 00:25:40;;;;;;;5.77;4.40;;;19.90;99.90;;;;;;5036407;28;20225;-56
2023/08/24 00:28:06;;;;;;;9.10;4.47;;;19.90;99.90;;;;;;5036946;28;20203;-64
2023/08/24 00:30:32;;;;;;;5.03;4.17;;;19.80;99.90;;;;;;5039477;28;20209;-58
2023/08/24 00:32:57;;;;;;;5.50;4.47;;;19.80;99.90;;;;;;5037956;28;20912;-55
2023/08/24 00:35:23;;;;;;;4.90;4.30;;;19.80;99.90;;;;;;5036272;28;20194;-56
2023/08/24 00:37:50;;;;;;;5.47;4.70;;;19.60;99.90;;;;;;5039498;28;20492;-57
2023/08/24 00:40:16;;;;;;;7.23;4.67;;;19.50;99.90;;;;;;5036875;28;20225;-55
2023/08/24 00:42:43;;;;;;;5.47;4.80;;;19.50;99.90;;;;;;5042121;28;20194;-57
2023/08/24 00:45:10;;;;;;;6.17;4.10;;;19.40;99.90;;;;;;5029305;28;20207;-55
2023/08/24 00:47:41;;;;;;;7.70;3.97;;;19.40;99.90;;;;;;5015708;28;20205;-54
2023/08/24 00:50:07;;;;;;;6.23;4.37;;;19.40;99.90;;;;;;5032423;28;20231;-54
2023/08/24 00:52:33;;;;;;;5.37;4.00;;;19.40;99.90;;;;;;5033063;28;20198;-54
2023/08/24 00:54:59;;;;;;;4.57;4.17;;;19.40;99.90;;;;;;5034028;28;20274;-54
2023/08/24 00:57:27;;;;;;;6.73;4.30;;;19.40;99.90;;;;;;5032830;28;20286;-54
2023/08/24 00:59:52;;;;;;;4.33;3.93;;;19.40;99.90;;;;;;5026936;28;20202;-54
2023/08/24 01:02:18;;;;;;;4.73;3.90;;;19.40;99.90;;;;;;5020442;28;20208;-55
2023/08/24 01:04:46;;;;;;;4.13;3.83;;;19.40;99.90;;;;;;5017948;28;20599;-55
2023/08/24 01:07:13;;;;;;;7.93;4.63;;;19.50;99.90;;;;;;5030728;28;20205;-54
2023/08/24 01:09:39;;;;;;;4.97;3.97;;;19.50;99.90;;;;;;5013973;28;20920;-55
2023/08/24 01:12:38;;;;;;;5.93;4.30;;;19.40;99.90;;;;;;5039493;28;20248;-55
2023/08/24 01:15:12;;;;;;;6.90;4.63;;;19.40;99.90;;;;;;5035627;28;20248;-55
2023/08/24 01:17:39;;;;;;;5.33;4.10;;;19.30;99.90;;;;;;5030131;28;20271;-56
2023/08/24 01:20:06;;;;;;;6.27;4.83;;;19.30;99.90;;;;;;5037509;28;20198;-55
2023/08/24 01:22:59;;;;;;;5.07;4.67;;;19.30;99.90;;;;;;5041524;28;20194;-55
2023/08/24 01:25:51;;;;;;;5.07;4.57;;;19.30;99.90;;;;;;5040906;28;20722;-55
2023/08/24 01:28:18;;;;;;;4.67;4.13;;;19.30;99.90;;;;;;5041442;28;20210;-54
2023/08/24 01:30:44;;;;;;;4.90;4.40;;;19.30;99.90;;;;;;5037165;28;20802;-54
2023/08/24 01:33:11;;;;;;;5.40;4.43;;;19.30;99.90;;;;;;5040730;28;20431;-55
2023/08/24 01:35:37;;;;;;;4.87;4.20;;;19.20;99.90;;;;;;5038336;28;20829;-55
2023/08/24 01:38:04;;;;;;;4.60;4.20;;;19.20;99.90;;;;;;5033499;28;20219;-55
2023/08/24 01:40:52;;;;;;;5.80;4.20;;;19.20;99.90;;;;;;5040102;28;20195;-55
2023/08/24 01:43:20;;;;;;;4.67;4.00;;;19.20;99.90;;;;;;5014184;28;20204;-54
2023/08/24 01:45:47;;;;;;;6.10;4.10;;;19.20;99.90;;;;;;5034920;28;20206;-55
2023/08/24 01:48:13;;;;;;;6.33;4.50;;;19.30;99.90;;;;;;5042372;28;20284;-55
2023/08/24 01:50:39;;;;;;;5.43;4.37;;;19.30;99.90;;;;;;5035011;28;20281;-55
2023/08/24 01:53:04;;;;;;;5.63;3.90;;;19.30;99.90;;;;;;5035526;28;20203;-56
2023/08/24 01:55:30;;;;;;;3.77;3.47;;;19.40;99.90;;;;;;5016970;28;20218;-56
2023/08/24 01:57:56;;;;;;;3.37;3.07;;;19.40;99.90;;;;;;5036110;28;20216;-56
2023/08/24 02:00:22;;;;;;;3.97;3.13;;;19.40;99.90;;;;;;5040935;28;20228;-55
2023/08/24 02:02:48;;;;;;;3.87;3.57;;;19.40;99.90;;;;;;5033704;28;20242;-55
2023/08/24 02:05:13;;;;;;;3.33;3.10;;;19.40;99.90;;;;;;5034179;28;20622;-55
2023/08/24 02:07:42;;;;;;;3.07;2.87;;;19.40;99.90;;;;;;5036084;28;20273;-56
2023/08/24 02:10:08;;;;;;;4.80;3.40;;;19.50;99.90;;;;;;5035627;28;20199;-56
2023/08/24 02:12:34;;;;;;;3.57;3.27;;;19.50;99.90;;;;;;5022531;28;20219;-57
2023/08/24 02:14:59;;;;;;;3.40;2.93;;;19.50;99.90;;;;;;5018733;28;20319;-56
2023/08/24 02:17:26;;;;;;;3.50;3.20;;;19.50;99.90;;;;;;5035444;28;20229;-56
2023/08/24 02:19:52;;;;;;;3.77;3.00;;;19.50;99.90;;;;;;5033716;28;20398;-56
2023/08/24 02:22:17;;;;;;;3.73;3.37;;;19.60;99.90;;;;;;5035229;28;20197;-63
2023/08/24 02:24:43;;;;;;;3.83;3.43;;;19.60;99.90;;;;;;5035354;28;20256;-58
2023/08/24 02:27:08;;;;;;;4.70;3.07;;;19.60;99.90;;;;;;5032895;28;20261;-58
2023/08/24 02:29:34;;;;;;;3.90;3.33;;;19.70;99.90;;;;;;5033175;28;20209;-54
2023/08/24 02:31:59;;;;;;;5.50;3.80;;;19.80;99.90;;;;;;5035916;28;20225;-56
2023/08/24 02:34:25;;;;;;;3.93;3.20;;;19.80;99.90;;;;;;5038826;28;20202;-56
2023/08/24 02:36:50;;;;;;;5.47;3.77;;;19.90;99.90;;;;;;5036691;28;20454;-58
2023/08/24 02:39:16;;;;;;;5.00;3.37;;;19.90;99.90;;;;;;5018780;28;20210;-56
2023/08/24 02:41:42;;;;;;;3.80;3.50;;;19.90;99.90;;;;;;5036653;28;20676;-55
2023/08/24 02:44:08;;;;;;;3.73;3.43;;;20.00;99.90;;;;;;5033415;28;20221;-55
2023/08/24 02:46:33;;;;;;;3.90;3.50;;;20.00;99.90;;;;;;5022730;28;20636;-56
2023/08/24 02:48:59;;;;;;;3.57;3.20;;;20.00;99.90;;;;;;5035798;28;20730;-55
2023/08/24 02:51:24;;;;;;;4.07;3.70;;;20.00;99.90;;;;;;5036362;28;20580;-55
2023/08/24 02:53:50;;;;;;;5.43;3.20;;;20.00;99.90;;;;;;5023149;28;20212;-56
2023/08/24 02:56:16;;;;;;;3.47;3.17;;;20.00;99.90;;;;;;5036323;28;20205;-57
2023/08/24 02:58:41;;;;;;;5.63;4.30;;;20.00;99.90;;;;;;5035971;28;20217;-56
2023/08/24 03:01:07;;;;;;;5.93;3.27;;;20.00;99.90;;;;;;5018996;28;20203;-56
2023/08/24 03:03:34;;;;;;;3.60;3.30;;;20.10;99.90;;;;;;5037923;28;20710;-56
2023/08/24 03:06:02;;;;;;;4.30;3.97;;;20.10;99.90;;;;;;5034048;28;20226;-56
2023/08/24 03:08:28;;;;;;;4.53;3.47;;;20.20;99.90;;;;;;5018872;28;20197;-55
2023/08/24 03:10:54;;;;;;;4.50;4.00;;;20.20;99.90;;;;;;5037041;28;20706;-55
2023/08/24 03:13:19;;;;;;;3.83;3.40;;;20.20;99.90;;;;;;5031262;28;20257;-56
2023/08/24 03:15:45;;;;;;;4.00;3.37;;;20.20;99.90;;;;;;5036543;28;20202;-56
2023/08/24 03:18:14;;;;;;;5.50;3.30;;;20.10;99.90;;;;;;5014978;28;20209;-56
2023/08/24 03:20:40;;;;;;;3.57;3.27;;;20.10;99.90;;;;;;5015713;28;20615;-55
2023/08/24 03:23:06;;;;;;;3.47;3.17;;;20.10;99.90;;;;;;5036545;28;20198;-56
2023/08/24 03:25:36;;;;;;;3.87;3.47;;;20.10;99.90;;;;;;5019628;28;20375;-56
2023/08/24 03:28:02;;;;;;;5.23;3.70;;;20.10;99.90;;;;;;5029252;28;20206;-56
2023/08/24 03:30:28;;;;;;;5.60;3.00;;;20.10;99.90;;;;;;5033582;28;20218;-55
2023/08/24 03:32:54;;;;;;;5.90;3.53;;;20.10;99.90;;;;;;5035656;28;20200;-55
2023/08/24 03:35:19;;;;;;;3.53;2.70;;;20.10;99.90;;;;;;5017056;28;20656;-55
2023/08/24 03:37:45;;;;;;;3.30;3.10;;;20.10;99.90;;;;;;5033401;28;20220;-56
2023/08/24 03:40:12;;;;;;;4.07;2.80;;;20.10;99.90;;;;;;5033272;28;20217;-56
2023/08/24 03:42:37;;;;;;;3.27;2.90;;;20.10;99.90;;;;;;5014484;28;20198;-56
2023/08/24 03:45:03;;;;;;;5.40;3.37;;;20.10;99.90;;;;;;5010978;28;20204;-54
2023/08/24 03:47:29;;;;;;;4.37;3.10;;;20.10;99.90;;;;;;5034523;28;20558;-56
2023/08/24 03:49:54;;;;;;;3.83;2.43;;;20.00;99.90;;;;;;5034377;28;20206;-56
2023/08/24 03:52:20;;;;;;;3.07;2.80;;;20.00;99.90;;;;;;5015065;28;20194;-56
2023/08/24 03:54:46;;;;;;;4.50;3.13;;;20.00;99.90;;;;;;5033120;28;20250;-56
2023/08/24 03:57:11;;;;;;;3.97;2.93;;;20.00;99.90;;;;;;5032949;28;20214;-54
2023/08/24 03:59:37;;;;;;;3.63;3.07;;;20.00;99.90;;;;;;5032652;28;20277;-54
2023/08/24 04:02:03;;;;;;;2.93;2.73;;;20.00;99.90;;;;;;5032977;28;20260;-55
2023/08/24 04:04:30;;;;;;;5.07;3.10;;;20.00;99.90;;;;;;5017002;28;20202;-55
2023/08/24 04:06:55;;;;;;;3.00;2.80;;;20.00;99.90;;;;;;5016728;28;20654;-55
2023/08/24 04:09:21;;;;;;;3.67;3.20;;;20.10;99.90;;;;;;5032906;28;20209;-56
2023/08/24 04:11:46;;;;;;;3.53;3.23;;;20.10;99.90;;;;;;5032909;28;20699;-56
2023/08/24 04:14:12;;;;;;;4.23;2.80;;;20.10;99.90;;;;;;5030980;28;20217;-55
2023/08/24 04:16:37;;;;;;;3.07;2.87;;;20.10;99.90;;;;;;5032763;28;20546;-55
2023/08/24 04:19:03;;;;;;;4.40;3.20;;;20.10;99.90;;;;;;5033140;28;20263;-55
2023/08/24 04:21:29;;;;;;;3.13;2.90;;;20.10;99.90;;;;;;5031075;28;20288;-55
2023/08/24 04:23:54;;;;;;;6.77;3.03;;;20.10;99.90;;;;;;5016582;28;20827;-56
2023/08/24 04:26:20;;;;;;;2.90;2.70;;;20.00;99.90;;;;;;5000778;28;20300;-55
2023/08/24 04:28:45;;;;;;;3.33;3.07;;;20.10;99.90;;;;;;5012941;28;20215;-57
2023/08/24 04:31:11;;;;;;;3.80;3.50;;;20.10;99.90;;;;;;5012800;28;20275;-57
2023/08/24 04:33:36;;;;;;;2.83;2.63;;;20.10;99.90;;;;;;5012336;28;20239;-57
2023/08/24 04:36:05;;;;;;;2.87;2.67;;;20.10;99.90;;;;;;5012738;28;20191;-57
2023/08/24 04:38:31;;;;;;;3.00;2.70;;;20.10;99.90;;;;;;5008905;28;20512;-57
2023/08/24 04:40:56;;;;;;;5.70;3.13;;;20.20;99.90;;;;;;5011425;28;20202;-57
2023/08/24 04:43:23;;;;;;;4.87;3.47;;;20.20;99.90;;;;;;5011224;28;20654;-56
2023/08/24 04:45:53;;;;;;;2.80;2.60;;;20.20;99.90;;;;;;4995946;28;20550;-56
2023/08/24 04:48:23;;;;;;;3.43;2.93;;;20.10;99.90;;;;;;5010448;28;20241;-56
2023/08/24 04:50:49;;;;;;;4.20;3.20;;;20.10;99.90;;;;;;5018650;28;20221;-56
2023/08/24 04:53:17;;;;;;;3.90;3.10;;;20.10;99.90;;;;;;5015078;28;20221;-57
2023/08/24 04:55:43;;;;;;;3.33;2.57;;;20.10;99.90;;;;;;5023924;28;20626;-57
2023/08/24 04:58:10;;;;;;;6.37;3.10;;;20.00;99.90;;;;;;5004285;28;20211;-57
2023/08/24 05:00:37;;;;;;;4.90;3.67;;;20.00;99.90;;;;;;5000106;28;20903;-56
2023/08/24 05:03:06;;;;;;;3.40;3.10;;;20.10;99.90;;;;;;5008325;28;20221;-57
2023/08/24 05:05:33;;;;;;;3.93;3.10;;;20.10;99.90;;;;;;5005964;28;20212;-56
2023/08/24 05:08:00;;;;;;;3.97;2.83;;;20.10;99.90;;;;;;5001413;28;20215;-56
2023/08/24 05:10:29;;;;;;;5.77;3.10;;;20.10;99.90;;;;;;5011869;28;20203;-56
2023/08/24 05:12:55;;;;;;;12.03;3.20;;;20.00;99.90;;;;;;5020665;28;20756;-57
2023/08/24 05:15:20;;;;;;;4.37;2.97;;;20.00;99.90;;;;;;5020384;28;20230;-57
2023/08/24 05:17:46;;;;;;;4.33;3.87;;;20.10;99.90;;;;;;5021143;28;21038;-56
2023/08/24 05:20:11;;;;;;;5.13;3.20;;;20.10;99.90;;;;;;5025327;28;20277;-56
2023/08/24 05:22:37;;;;;;;4.73;3.60;;;20.20;99.90;;;;;;5020924;28;20210;-56
2023/08/24 05:25:04;;;;;;;3.13;2.80;;;20.20;99.90;;;;;;5015700;28;20783;-56
2023/08/24 05:27:30;;;;;;;4.47;3.20;;;20.20;99.90;;;;;;5028991;28;20210;-56
2023/08/24 05:29:55;;;;;;;5.17;3.07;;;20.30;99.90;;;;;;5056719;28;20214;-57
2023/08/24 05:32:21;;;;;;;4.10;3.73;;;20.30;99.90;;;;;;5047201;28;20210;-57
2023/08/24 05:34:46;;;;;;;8.03;3.63;;;20.30;99.90;;;;;;5021551;28;20225;-62
2023/08/24 05:37:12;;;;;;;4.30;3.40;;;20.30;99.90;;;;;;5026438;28;21003;-57
2023/08/24 05:39:38;;;;;;;3.83;3.53;;;20.30;99.90;;;;;;5042704;28;20206;-57
2023/08/24 05:42:04;;;;;;;3.50;2.90;;;20.40;99.90;;;;;;5060707;28;20198;-58
2023/08/24 05:44:29;;;;;;;3.40;2.83;;;20.40;99.90;;;;;;5023852;28;20730;-55
2023/08/24 05:46:55;;;;;;;8.47;3.40;;;20.50;99.90;;;;;;5043822;28;20838;-58
2023/08/24 05:49:20;;;;;;;3.23;2.93;;;20.50;99.90;;;;;;5044929;28;20252;-54
2023/08/24 05:51:46;;;;;;;3.87;3.20;;;20.60;99.90;;;;;;5046775;28;20218;-55
2023/08/24 05:54:13;;;;;;;8.23;3.63;;;20.60;99.90;;;;;;5041051;28;20243;-54
2023/08/24 05:56:38;;;;;;;3.77;3.47;;;20.60;99.90;;;;;;5046758;28;20545;-55
2023/08/24 05:59:04;;;;;;;3.87;3.47;;;20.60;99.90;;;;;;5016596;28;20424;-55
2023/08/24 06:01:29;;;;;;;4.03;3.63;;;20.60;99.90;;;;;;5043279;28;20197;-58
2023/08/24 06:03:55;;;;;;;3.50;3.20;;;20.50;99.90;;;;;;5041243;28;20213;-58
2023/08/24 06:06:20;;;;;;;3.10;2.90;;;20.60;99.90;;;;;;5039964;28;20194;-54
2023/08/24 06:08:46;;;;;;;3.00;2.80;;;20.70;99.90;;;;;;5029136;28;20219;-57
2023/08/24 06:11:11;;;;;;;3.90;2.87;;;20.70;99.90;;;;;;5041366;28;20277;-57
2023/08/24 06:13:37;;;;;;;5.23;3.37;;;20.70;99.90;;;;;;5033729;28;20974;-54
2023/08/24 06:16:03;;;;;;;5.30;4.23;;;20.80;99.90;;;;;;5053025;28;20198;-63
2023/08/24 06:18:28;;;;;;;4.27;3.17;;;20.90;99.90;;;;;;5037926;28;20243;-67
2023/08/24 06:20:54;;;;;;;4.82;3.55;;;20.90;99.90;;;;;;5042490;28;20565;-62
2023/08/24 06:23:20;;;;;;;7.37;4.17;;;20.80;99.90;;;;;;5015777;28;20206;-70
2023/08/24 06:25:46;;;;;;;3.13;2.55;;;21.00;99.90;;;;;;5041103;28;20428;-57
2023/08/24 06:28:12;;;;;;;3.87;2.83;;;21.10;99.90;;;;;;5015263;28;20227;-55
2023/08/24 06:30:41;;;;;;;3.17;2.67;;;21.20;99.90;;;;;;5027308;28;20199;-56
2023/08/24 06:33:07;;;;;;;4.37;2.57;;;21.30;99.90;;;;;;4999761;28;20234;-55
2023/08/24 06:35:33;;;;;;;3.95;2.38;;;21.30;99.90;;;;;;5026046;28;20428;-65
2023/08/24 06:37:59;;;;;;;4.40;2.57;;;21.40;99.90;;;;;;5019666;28;20203;-63
2023/08/24 06:40:24;;;;;;;2.73;2.20;;;21.40;99.90;;;;;;4997512;28;20430;-67
2023/08/24 06:42:50;;;;;;;4.33;2.50;;;21.40;99.90;;;;;;5010503;28;20281;-59
2023/08/24 06:45:18;;;;;;;3.10;2.50;;;21.40;99.90;;;;;;5007578;28;20204;-56
2023/08/24 06:47:43;;;;;;;4.80;3.00;;;21.50;99.90;;;;;;4997738;28;21175;-58
2023/08/24 06:50:09;;;;;;;3.10;2.80;;;21.70;99.90;;;;;;5010993;28;20212;-57
2023/08/24 06:52:35;;;;;;;5.13;2.33;;;21.70;99.90;;;;;;5013698;28;20278;-62
2023/08/24 06:55:01;;;;;;;3.40;2.60;;;21.70;99.90;;;;;;5019358;28;20653;-63
2023/08/24 06:57:26;;;;;;;3.53;2.97;;;21.70;99.90;;;;;;4998298;28;20206;-62
2023/08/24 06:59:52;;;;;;;4.83;2.40;;;21.70;99.90;;;;;;5014057;28;20572;-62
2023/08/24 07:02:18;;;;;;;2.70;2.50;;;21.90;99.90;;;;;;4996541;28;20260;-62
2023/08/24 07:04:44;;;;;;;3.67;2.50;;;22.00;99.90;;;;;;5013976;28;20731;-62
2023/08/24 07:07:10;;;;;;;3.57;2.50;;;22.10;99.90;;;;;;5014793;28;20218;-62
2023/08/24 07:09:36;;;;;;;2.97;2.67;;;22.10;99.90;;;;;;5014269;28;20618;-62
2023/08/24 07:12:07;;;;;;;5.43;2.60;;;22.30;99.90;;;;;;5010530;28;20602;-68
2023/08/24 07:14:33;;;;;;;4.57;2.30;;;22.20;99.90;;;;;;4999753;28;20227;-64
2023/08/24 07:16:59;;;;;;;4.50;2.83;;;22.20;99.90;;;;;;5019955;28;20199;-65
2023/08/24 07:19:24;;;;;;;3.07;2.70;;;22.20;99.90;;;;;;5012631;28;20213;-58
2023/08/24 07:21:50;;;;;;;2.93;2.47;;;22.20;99.90;;;;;;5008444;28;20199;-59
2023/08/24 07:24:19;;;;;;;4.73;2.80;;;22.30;99.90;;;;;;5013986;28;20192;-64
2023/08/24 07:26:45;;;;;;;5.85;3.22;;;22.30;99.90;;;;;;5014751;28;20242;-58
2023/08/24 07:29:11;;;;;;;3.30;3.00;;;22.30;99.90;;;;;;4987835;28;20192;-65
2023/08/24 07:31:36;;;;;;;4.65;3.47;;;22.50;99.90;;;;;;4990599;28;20265;-60
2023/08/24 07:34:03;;;;;;;3.17;2.73;;;22.60;99.90;;;;;;5009391;28;20216;-60
2023/08/24 07:36:29;;;;;;;4.67;2.23;;;22.70;99.90;;;;;;5013272;28;20988;-58
2023/08/24 07:38:54;;;;;;;3.27;2.50;;;22.60;99.90;;;;;;5007683;28;20287;-59
2023/08/24 07:41:20;;;;;;;3.67;2.72;;;22.50;99.90;;;;;;5007561;28;20227;-58
2023/08/24 07:43:45;;;;;;;2.60;2.35;;;22.50;99.90;;;;;;5005637;28;20199;-58
2023/08/24 07:46:11;;;;;;;5.13;2.95;;;22.50;99.90;;;;;;5007733;28;20196;-58
2023/08/24 07:48:36;;;;;;;3.87;2.57;;;22.60;99.90;;;;;;4994000;28;20261;-58
2023/08/24 07:51:02;;;;;;;5.13;2.53;;;22.70;99.90;;;;;;4984664;28;20207;-57
2023/08/24 07:53:28;;;;;;;2.67;2.47;;;22.70;99.90;;;;;;4988887;28;20685;-66
2023/08/24 07:55:57;;;;;;;5.18;2.72;;;22.70;99.90;;;;;;4993261;28;20206;-59
2023/08/24 07:58:23;;;;;;;5.28;3.10;;;22.80;99.90;;;;;;5005499;28;20215;-63
2023/08/24 08:00:50;;;;;;;2.75;2.50;;;22.90;99.90;;;;;;4986417;28;20586;-58
2023/08/24 08:03:16;;;;;;;3.75;2.42;;;23.10;99.90;;;;;;5005104;28;20296;-58
2023/08/24 08:05:41;;;;;;;3.27;2.80;;;23.30;99.90;;;;;;5010346;28;20510;-68
2023/08/24 08:08:07;;;;;;;4.50;3.00;;;23.40;99.90;;;;;;5012227;28;20280;-68
2023/08/24 08:10:32;;;;;;;2.17;2.00;;;23.50;99.90;;;;;;4988928;28;20258;-57
2023/08/24 08:12:58;;;;;;;2.92;2.45;;;23.40;99.90;;;;;;5010820;28;20204;-57
2023/08/24 08:15:23;;;;;;;4.10;2.60;;;23.40;99.90;;;;;;4985181;28;20273;-64
2023/08/24 08:17:49;;;;;;;4.43;1.95;;;23.60;99.90;;;;;;5006628;28;21026;-62
2023/08/24 08:20:15;;;;;;;3.15;2.13;;;23.80;99.90;;;;;;5009834;28;20665;-66
2023/08/24 08:22:40;;;;;;;4.38;3.00;;;23.80;99.90;;;;;;5007867;28;20195;-57
2023/08/24 08:25:06;;;;;;;2.80;2.28;;;23.80;99.90;;;;;;5010435;28;20195;-59
2023/08/24 08:27:33;;;;;;;2.58;2.38;;;23.70;99.90;;;;;;5031997;28;20744;-64
2023/08/24 08:29:58;;;;;;;2.45;2.20;;;23.60;99.90;;;;;;5032999;28;20286;-60
2023/08/24 08:32:26;;;;;;;2.03;1.92;;;23.60;99.90;;;;;;5035719;28;20294;-59
2023/08/24 08:34:53;;;;;;;5.32;2.72;;;23.70;99.90;;;;;;5035036;28;20268;-60
2023/08/24 08:37:19;;;;;;;4.47;2.55;;;23.90;99.90;;;;;;5034414;28;20206;-64
2023/08/24 08:39:44;;;;;;;2.13;1.95;;;24.10;99.90;;;;;;5017695;28;20186;-64
2023/08/24 08:42:14;;;;;;;2.85;2.33;;;24.10;99.90;;;;;;5034443;28;20342;-59
2023/08/24 08:44:41;;;;;;;5.63;2.45;;;24.10;99.90;;;;;;5031656;28;20676;-59
2023/08/24 08:47:08;;;;;;;3.80;2.15;;;24.00;99.90;;;;;;5036223;28;20290;-57
2023/08/24 08:49:35;;;;;;;2.25;2.05;;;24.10;99.90;;;;;;5038988;28;20645;-70
2023/08/24 08:52:01;;;;;;;3.30;1.88;;;24.10;99.90;;;;;;5033934;28;20427;-61
2023/08/24 08:54:27;;;;;;;2.00;1.90;;;23.90;99.90;;;;;;5037673;28;20219;-61
2023/08/24 08:56:52;;;;;;;4.65;2.60;;;23.80;99.90;;;;;;5038081;28;20197;-62
2023/08/24 08:59:18;;;;;;;2.60;2.38;;;23.80;99.90;;;;;;5045275;28;20290;-61
2023/08/24 09:01:47;;;;;;;1.88;1.77;;;23.70;99.90;;;;;;5032030;28;20607;-63
2023/08/24 09:04:13;;;;;;;3.63;2.58;;;23.60;99.90;;;;;;5032457;28;20199;-62
2023/08/24 09:06:39;;;;;;;3.15;2.45;;;23.50;99.90;;;;;;5034570;28;21037;-63
2023/08/24 09:09:05;;;;;;;3.78;2.10;;;23.50;99.90;;;;;;5033844;28;20231;-62
2023/08/24 09:11:30;;;;;;;3.85;2.28;;;23.60;99.90;;;;;;5017565;28;20202;-62
2023/08/24 09:13:56;;;;;;;3.05;2.05;;;23.70;99.90;;;;;;5035184;28;20662;-62
2023/08/24 09:16:22;;;;;;;5.88;2.20;;;23.70;99.90;;;;;;5036989;28;20199;-62
2023/08/24 09:18:47;;;;;;;2.92;2.28;;;23.80;99.90;;;;;;5038629;28;20337;-62
2023/08/24 09:21:16;;;;;;;3.78;2.95;;;24.00;99.90;;;;;;5037345;28;20996;-61
2023/08/24 09:23:55;;;;;;;4.93;2.50;;;24.00;99.90;;;;;;5037184;28;20700;-64
2023/08/24 09:26:31;;;;;;;4.68;2.25;;;24.20;99.90;;;;;;5019682;28;20214;-67
2023/08/24 09:28:57;;;;;;;3.50;2.60;;;24.30;99.90;;;;;;5032895;28;20202;-70
2023/08/24 09:31:34;;;;;;;6.25;3.00;;;24.40;99.90;;;;;;5032852;28;20746;-71
2023/08/24 09:34:01;;;;;;;3.58;2.28;;;24.40;99.90;;;;;;5013254;28;20225;-65
2023/08/24 09:36:33;;;;;;;6.32;3.45;;;24.40;99.90;;;;;;5037621;28;20204;-65
2023/08/24 09:39:00;;;;;;;13.20;2.60;;;24.30;99.90;;;;;;5034292;28;20195;-70
2023/08/24 09:41:40;;;;;;;3.90;2.67;;;24.50;99.90;;;;;;5022801;28;20564;-69
2023/08/24 09:44:07;;;;;;;3.35;2.25;;;24.60;99.90;;;;;;5004921;28;20200;-58
2023/08/24 09:46:34;;;;;;;3.53;2.38;;;24.70;99.70;;;;;;5032029;28;20239;-65
2023/08/24 09:49:01;;;;;;;2.92;2.28;;;24.80;99.50;;;;;;5020452;28;20206;-59
2023/08/24 09:51:27;;;;;;;3.42;3.13;;;24.80;99.70;;;;;;5037149;28;20289;-57
2023/08/24 09:53:59;;;;;;;2.75;2.17;;;24.80;98.60;;;;;;5033523;28;20327;-64
2023/08/24 09:56:27;;;;;;;2.33;1.83;;;24.80;99.90;;;;;;5034835;28;20293;-58
2023/08/24 09:58:54;;;;;;;3.53;3.22;;;24.70;99.90;;;;;;5029720;28;20494;-58
2023/08/24 10:01:21;;;;;;;4.82;2.33;;;24.80;98.60;;;;;;5029634;28;20866;-59
2023/08/24 10:03:51;;;;;;;2.58;2.30;;;25.00;98.10;;;;;;5031560;28;20662;-59
2023/08/24 10:06:21;;;;;;;3.25;2.30;;;24.90;97.60;;;;;;5014682;28;20210;-61
2023/08/24 10:08:55;;;;;;;3.83;2.10;;;24.90;99.10;;;;;;5034864;28;21003;-64
2023/08/24 10:11:26;;;;;;;2.88;2.13;;;25.00;98.40;;;;;;5031170;28;20290;-66
2023/08/24 10:14:07;;;;;;;2.45;2.08;;;25.00;99.00;;;;;;5037040;28;20227;-66
2023/08/24 10:16:35;;;;;;;3.50;2.10;;;25.00;97.40;;;;;;5020428;28;20211;-69
2023/08/24 10:19:01;;;;;;;2.60;1.85;;;25.00;96.70;;;;;;5030474;28;20682;-66
2023/08/24 10:21:28;;;;;;;2.80;2.20;;;25.10;97.00;;;;;;5032661;28;20424;-58
2023/08/24 10:23:56;;;;;;;2.75;2.53;;;25.10;97.30;;;;;;5030281;28;20192;-59
2023/08/24 10:26:23;;;;;;;6.10;2.47;;;25.00;97.90;;;;;;5028752;28;20235;-64
2023/08/24 10:28:50;;;;;;;3.13;2.30;;;24.90;98.80;;;;;;5034670;28;20202;-57
2023/08/24 10:31:16;;;;;;;4.30;2.70;;;25.00;99.30;;;;;;5031930;28;20997;-61
2023/08/24 10:33:44;;;;;;;2.38;2.17;;;25.20;97.90;;;;;;5035118;28;20264;-60
2023/08/24 10:36:09;;;;;;;2.85;2.42;;;25.30;97.60;;;;;;5030628;28;20204;-66
2023/08/24 10:38:43;;;;;;;3.00;2.25;;;25.40;98.00;;;;;;5035796;28;20190;-60
2023/08/24 10:41:12;;;;;;;2.60;2.40;;;25.50;97.30;;;;;;5034461;28;20207;-66
2023/08/24 10:43:39;;;;;;;4.63;2.35;;;25.50;97.40;;;;;;5033665;28;20230;-66
2023/08/24 10:46:12;;;;;;;2.00;1.90;;;25.60;97.90;;;;;;5034168;28;20206;-66
2023/08/24 10:48:40;;;;;;;3.38;2.60;;;25.40;99.50;;;;;;5030381;28;20217;-61
2023/08/24 10:51:16;;;;;;;3.50;2.40;;;25.40;97.60;;;;;;5032907;28;20214;-73
2023/08/24 10:53:45;;;;;;;3.30;2.65;;;25.70;97.50;;;;;;5013563;28;20199;-62
2023/08/24 10:56:12;;;;;;;4.00;2.55;;;25.90;98.00;;;;;;5033944;28;20207;-62
2023/08/24 10:58:37;;;;;;;2.67;2.30;;;25.90;99.30;;;;;;5017599;28;20202;-63
2023/08/24 11:01:03;;;;;;;6.07;2.28;;;26.30;96.80;;;;;;5034028;28;20263;-63
2023/08/24 11:03:32;;;;;;;6.85;2.63;;;26.60;96.50;;;;;;5030799;28;20377;-62
2023/08/24 11:05:58;;;;;;;4.63;3.00;;;26.90;94.80;;;;;;5030107;28;20214;-63
2023/08/24 11:08:44;;;;;;;3.67;2.35;;;27.10;94.00;;;;;;5019692;28;20818;-62
2023/08/24 11:11:25;;;;;;;2.33;2.15;;;26.90;94.90;;;;;;5035306;28;20280;-63
2023/08/24 11:14:21;;;;;;;7.75;3.40;;;26.70;95.40;;;;;;5035446;28;20210;-59
2023/08/24 11:16:48;;;;;;;4.88;2.90;;;26.50;94.90;;;;;;5029733;28;20217;-60
2023/08/24 11:19:15;;;;;;;5.10;2.95;;;26.40;94.80;;;;;;5031893;28;20778;-58
2023/08/24 11:21:43;;;;;;;4.95;3.03;;;26.80;94.30;;;;;;5030055;28;20202;-65
2023/08/24 11:24:16;;;;;;;3.35;3.05;;;27.20;93.20;;;;;;5031922;28;20499;-60
2023/08/24 11:26:49;;;;;;;2.92;2.42;;;27.40;95.00;;;;;;5032871;28;20297;-59
2023/08/24 11:29:21;;;;;;;4.25;3.05;;;27.40;93.70;;;;;;5026974;28;20208;-58
2023/08/24 11:31:47;;;;;;;3.20;3.00;;;27.00;94.60;;;;;;5034992;28;20222;-59
2023/08/24 11:34:15;;;;;;;5.60;3.20;;;26.90;95.80;;;;;;5014012;28;21011;-59
2023/08/24 11:36:46;;;;;;;4.43;3.15;;;27.20;94.10;;;;;;5034430;28;20691;-58
2023/08/24 11:39:19;;;;;;;5.18;2.65;;;27.30;93.90;;;;;;5030203;28;20752;-58
2023/08/24 11:41:55;;;;;;;4.70;2.78;;;27.90;94.00;;;;;;5034396;28;20695;-64
2023/08/24 11:44:21;;;;;;;4.95;3.35;;;28.30;92.30;;;;;;5023800;28;20207;-68
2023/08/24 11:46:46;;;;;;;2.63;2.42;;;28.40;92.60;;;;;;5041660;28;20695;-67
2023/08/24 11:49:12;;;;;;;3.25;3.05;;;28.40;92.30;;;;;;5032243;28;20198;-62
2023/08/24 11:51:38;;;;;;;4.25;2.72;;;28.20;92.50;;;;;;5032217;28;20214;-63
2023/08/24 11:54:04;;;;;;;3.45;2.67;;;27.90;92.90;;;;;;5012654;28;20222;-63
2023/08/24 11:56:29;;;;;;;6.30;3.40;;;27.90;93.30;;;;;;5031422;28;20225;-63
2023/08/24 11:58:55;;;;;;;4.15;2.25;;;27.90;91.90;;;;;;5034598;28;20248;-63
2023/08/24 12:01:21;;;;;;;3.78;2.28;;;28.50;92.50;;;;;;5015283;28;20198;-63
2023/08/24 12:03:46;;;;;;;2.72;2.35;;;28.50;92.40;;;;;;5034820;28;21117;-63
2023/08/24 12:06:14;;;;;;;3.95;2.55;;;28.90;92.00;;;;;;5014783;28;20380;-62
2023/08/24 12:08:45;;;;;;;3.33;2.67;;;29.80;88.00;;;;;;5035802;28;20195;-62
2023/08/24 12:11:13;;;;;;;2.58;2.38;;;29.80;90.90;;;;;;5033435;28;20226;-62
2023/08/24 12:13:44;;;;;;;3.45;2.33;;;29.80;90.40;;;;;;5019619;28;20301;-63
2023/08/24 12:16:10;;;;;;;4.72;2.50;;;29.70;87.60;;;;;;5033732;28;20194;-69
2023/08/24 12:18:45;;;;;;;5.90;2.47;;;30.60;82.90;;;;;;5014450;28;20789;-66
2023/08/24 12:21:13;;;;;;;4.55;2.63;;;30.80;84.40;;;;;;5032534;28;20269;-63
2023/08/24 12:23:38;;;;;;;3.72;2.85;;;30.10;80.90;;;;;;5037749;28;20211;-63
2023/08/24 12:26:07;;;;;;;2.88;2.53;;;30.30;80.90;;;;;;5016120;28;20261;-63
2023/08/24 12:28:33;;;;;;;3.53;2.70;;;30.50;85.10;;;;;;5035279;28;20207;-62
2023/08/24 12:31:03;;;;;;;2.50;2.33;;;30.40;82.40;;;;;;5033327;28;20202;-64
2023/08/24 12:33:29;;;;;;;2.55;2.35;;;30.70;78.30;;;;;;5014572;28;20209;-64
2023/08/24 12:35:55;;;;;;;3.22;2.80;;;30.90;78.20;;;;;;5015267;28;20248;-60
2023/08/24 12:38:24;;;;;;;2.72;2.53;;;30.90;78.40;;;;;;5027945;28;20199;-61
2023/08/24 12:40:50;;;;;;;2.58;2.38;;;31.40;75.70;;;;;;5029201;28;20202;-63
2023/08/24 12:43:16;;;;;;;3.00;2.80;;;31.80;72.60;;;;;;5030548;28;20290;-62
2023/08/24 12:45:42;;;;;;;3.40;2.72;;;31.80;72.10;;;;;;5030366;28;20286;-63